createdAt,value
2023-12-22T00:00:40.852Z,26.60
2023-12-22T00:03:08.278Z,29.00
2023-12-22T00:05:35.262Z,23.90
2023-12-22T00:08:02.942Z,31.40
2023-12-22T00:10:30.061Z,31.30
2023-12-22T00:12:57.389Z,28.30
2023-12-22T00:15:24.322Z,22.60
2023-12-22T00:17:51.398Z,22.80
2023-12-22T00:20:19.785Z,18.80
2023-12-22T00:22:46.840Z,21.30
2023-12-22T00:25:14.087Z,20.90
2023-12-22T00:27:40.989Z,26.80
2023-12-22T00:30:08.453Z,23.40
2023-12-22T00:32:35.633Z,18.10
2023-12-22T00:35:02.911Z,23.20
2023-12-22T00:37:30.136Z,22.80
2023-12-22T00:39:58.351Z,27.60
2023-12-22T00:42:26.460Z,29.70
2023-12-22T00:44:53.290Z,27.20
2023-12-22T00:47:20.244Z,28.90
2023-12-22T00:49:46.991Z,24.80
2023-12-22T00:52:13.945Z,27.60
2023-12-22T00:54:40.974Z,28.30
2023-12-22T00:57:07.834Z,24.50
2023-12-22T00:59:34.650Z,22.40
2023-12-22T01:02:01.801Z,28.00
2023-12-22T01:04:28.918Z,26.90
2023-12-22T01:06:56.000Z,28.50
2023-12-22T01:09:23.247Z,32.40
2023-12-22T01:11:50.101Z,25.00
2023-12-22T01:14:16.936Z,23.60
2023-12-22T01:16:43.706Z,23.30
2023-12-22T01:19:10.629Z,29.70
2023-12-22T01:21:37.570Z,27.30
2023-12-22T01:24:04.738Z,28.90
2023-12-22T01:26:31.959Z,26.60
2023-12-22T01:28:58.854Z,24.80
2023-12-22T01:31:25.863Z,30.20
2023-12-22T01:33:52.842Z,25.20
2023-12-22T01:36:19.737Z,22.80
2023-12-22T01:38:46.583Z,22.90
2023-12-22T01:41:14.040Z,30.90
2023-12-22T01:43:40.937Z,23.20
2023-12-22T01:46:08.950Z,26.00
2023-12-22T01:48:36.101Z,23.20
2023-12-22T01:51:03.148Z,22.20
2023-12-22T01:53:30.304Z,19.90
2023-12-22T01:55:57.173Z,25.80
2023-12-22T01:58:24.104Z,25.40
2023-12-22T02:00:53.314Z,26.50
2023-12-22T02:03:20.649Z,23.90
2023-12-22T02:05:47.405Z,24.50
2023-12-22T02:08:14.530Z,22.50
2023-12-22T02:10:41.583Z,24.00
2023-12-22T02:13:08.944Z,26.10
2023-12-22T02:15:35.670Z,23.90
2023-12-22T02:19:46.512Z,24.00
2023-12-22T02:22:13.395Z,20.10
2023-12-22T02:24:41.168Z,21.00
2023-12-22T02:27:17.744Z,20.00
2023-12-22T02:29:48.674Z,23.90
2023-12-22T02:32:24.537Z,21.50
2023-12-22T02:34:54.227Z,20.80
2023-12-22T02:37:20.998Z,22.40
2023-12-22T02:39:48.117Z,24.10
2023-12-22T02:42:15.064Z,23.70
2023-12-22T02:44:41.906Z,23.80
2023-12-22T02:47:08.847Z,19.70
2023-12-22T02:49:35.815Z,22.70
2023-12-22T02:52:02.737Z,25.00
2023-12-22T02:54:32.343Z,24.50
2023-12-22T02:57:00.826Z,25.50
2023-12-22T02:59:29.244Z,22.10
2023-12-22T03:01:56.189Z,23.30
2023-12-22T03:04:23.074Z,22.90
2023-12-22T03:06:49.934Z,22.20
2023-12-22T03:09:16.989Z,26.60
2023-12-22T03:11:43.928Z,23.70
2023-12-22T03:14:11.182Z,19.90
2023-12-22T03:16:39.627Z,23.90
2023-12-22T03:19:08.145Z,22.70
2023-12-22T03:21:34.982Z,27.00
2023-12-22T03:24:01.845Z,25.50
2023-12-22T03:26:29.074Z,23.20
2023-12-22T03:28:55.862Z,22.90
2023-12-22T03:31:22.709Z,20.80
2023-12-22T03:33:49.727Z,22.20
2023-12-22T03:36:16.544Z,27.70
2023-12-22T03:38:43.283Z,25.50
2023-12-22T03:41:10.135Z,24.40
2023-12-22T03:43:36.926Z,24.60
2023-12-22T03:46:03.917Z,24.00
2023-12-22T03:48:31.635Z,21.00
2023-12-22T03:50:58.711Z,24.10
2023-12-22T03:53:26.286Z,23.00
2023-12-22T03:55:53.150Z,21.50
2023-12-22T03:58:20.008Z,23.40
2023-12-22T04:00:47.079Z,25.70
2023-12-22T04:03:14.388Z,19.40
2023-12-22T04:05:41.235Z,23.60
2023-12-22T04:08:07.987Z,24.40
2023-12-22T04:10:35.523Z,21.50
2023-12-22T04:13:03.172Z,17.90
2023-12-22T04:15:30.121Z,20.50
2023-12-22T04:17:56.923Z,22.60
2023-12-22T04:20:24.866Z,18.50
2023-12-22T04:22:51.866Z,24.60
2023-12-22T04:25:19.595Z,20.70
2023-12-22T04:27:46.859Z,23.10
2023-12-22T04:30:14.247Z,21.80
2023-12-22T04:32:41.131Z,26.20
2023-12-22T04:35:08.444Z,18.80
2023-12-22T04:37:35.516Z,25.00
2023-12-22T04:40:02.449Z,20.60
2023-12-22T04:42:29.895Z,22.50
2023-12-22T04:44:56.649Z,18.70
2023-12-22T04:47:23.778Z,22.60
2023-12-22T04:49:50.645Z,24.60
2023-12-22T04:52:17.591Z,24.00
2023-12-22T04:54:44.426Z,23.90
2023-12-22T04:57:11.150Z,21.20
2023-12-22T04:59:37.998Z,25.20
2023-12-22T05:02:04.870Z,24.00
2023-12-22T05:04:32.614Z,24.40
2023-12-22T05:06:59.543Z,24.00
2023-12-22T05:09:26.284Z,21.60
2023-12-22T05:11:53.021Z,22.30
2023-12-22T05:14:19.864Z,24.10
2023-12-22T05:16:46.737Z,24.90
2023-12-22T05:19:13.565Z,30.40
2023-12-22T05:21:40.289Z,25.00
2023-12-22T05:24:07.231Z,23.70
2023-12-22T05:26:33.977Z,22.80
2023-12-22T05:29:00.763Z,32.40
2023-12-22T05:31:28.608Z,25.70
2023-12-22T05:33:55.316Z,26.20
2023-12-22T05:36:22.161Z,22.50
2023-12-22T05:38:49.034Z,28.80
2023-12-22T05:41:15.748Z,26.30
2023-12-22T05:43:43.226Z,29.20
2023-12-22T05:46:10.453Z,29.10
2023-12-22T05:48:37.486Z,27.50
2023-12-22T05:51:07.927Z,33.50
2023-12-22T05:53:34.970Z,32.90
2023-12-22T05:56:01.880Z,29.60
2023-12-22T05:58:29.504Z,31.10
2023-12-22T06:00:56.341Z,24.50
2023-12-22T06:03:23.567Z,30.30
2023-12-22T06:05:50.966Z,28.30
2023-12-22T06:08:18.071Z,25.20
2023-12-22T06:10:45.266Z,27.60
2023-12-22T06:13:12.788Z,30.50
2023-12-22T06:15:39.929Z,24.20
2023-12-22T06:18:07.119Z,23.50
2023-12-22T06:20:34.023Z,24.90
2023-12-22T06:23:00.910Z,22.60
2023-12-22T06:25:27.969Z,26.50
2023-12-22T06:27:55.165Z,17.80
2023-12-22T06:30:22.134Z,20.40
2023-12-22T06:32:49.006Z,17.90
2023-12-22T06:35:17.884Z,16.40
2023-12-22T06:37:45.230Z,15.60
2023-12-22T06:40:12.561Z,15.20
2023-12-22T06:42:39.492Z,16.10
2023-12-22T06:45:06.954Z,15.90
2023-12-22T06:47:34.406Z,15.20
2023-12-22T06:50:01.395Z,16.70
2023-12-22T06:52:29.035Z,15.10
2023-12-22T06:54:55.754Z,14.30
2023-12-22T06:57:24.300Z,17.70
2023-12-22T06:59:52.506Z,16.00
2023-12-22T07:02:22.753Z,15.90
2023-12-22T07:05:10.930Z,13.30
2023-12-22T07:07:38.167Z,17.60
2023-12-22T07:10:05.815Z,13.80
2023-12-22T07:12:33.374Z,15.60
2023-12-22T07:15:00.640Z,16.10
2023-12-22T07:17:27.545Z,17.20
2023-12-22T07:19:58.302Z,13.50
2023-12-22T07:22:25.241Z,19.20
2023-12-22T07:24:53.396Z,14.40
2023-12-22T07:27:20.133Z,15.20
2023-12-22T07:29:46.975Z,13.70
2023-12-22T07:32:14.952Z,13.40
2023-12-22T07:34:42.662Z,15.20
2023-12-22T07:37:10.559Z,16.30
2023-12-22T07:39:38.398Z,14.10
2023-12-22T07:42:07.131Z,17.40
2023-12-22T07:44:34.317Z,15.70
2023-12-22T07:47:02.585Z,19.30
2023-12-22T07:49:31.158Z,19.00
2023-12-22T07:51:58.920Z,20.30
2023-12-22T07:54:26.555Z,18.40
2023-12-22T07:56:53.411Z,18.10
2023-12-22T07:59:27.224Z,25.30
2023-12-22T08:01:58.121Z,24.40
2023-12-22T08:04:25.083Z,18.30
2023-12-22T08:06:52.804Z,17.60
2023-12-22T08:09:19.901Z,16.40
2023-12-22T08:11:53.199Z,19.90
2023-12-22T08:14:20.248Z,17.50
2023-12-22T08:16:47.408Z,19.50
2023-12-22T08:19:14.537Z,18.40
2023-12-22T08:21:45.799Z,20.70
2023-12-22T08:24:19.545Z,17.90
2023-12-22T08:26:50.929Z,22.30
2023-12-22T08:29:20.043Z,20.20
2023-12-22T08:31:47.145Z,24.90
2023-12-22T08:34:13.998Z,22.10
2023-12-22T08:36:41.325Z,21.50
2023-12-22T08:39:09.352Z,24.20
2023-12-22T08:41:37.894Z,25.50
2023-12-22T08:44:05.804Z,30.40
2023-12-22T08:46:33.333Z,22.70
2023-12-22T08:49:00.509Z,26.60
2023-12-22T08:51:27.972Z,27.30
2023-12-22T08:53:57.850Z,28.30
2023-12-22T08:56:25.053Z,26.30
2023-12-22T08:58:52.895Z,27.80
2023-12-22T09:01:20.343Z,28.90
2023-12-22T09:03:47.396Z,23.70
2023-12-22T09:06:21.570Z,25.70
2023-12-22T09:08:48.452Z,25.70
2023-12-22T09:11:17.649Z,25.80
2023-12-22T09:13:44.536Z,19.20
2023-12-22T09:16:11.844Z,21.20
2023-12-22T09:18:38.939Z,19.60
2023-12-22T09:21:06.068Z,16.30
2023-12-22T09:23:34.221Z,17.50
2023-12-22T09:26:01.066Z,19.60
2023-12-22T09:28:28.641Z,22.20
2023-12-22T09:30:55.566Z,20.70
2023-12-22T09:33:23.788Z,19.80
2023-12-22T09:35:51.730Z,19.50
2023-12-22T09:38:18.842Z,22.00
2023-12-22T09:40:45.984Z,18.30
2023-12-22T09:43:13.360Z,18.60
2023-12-22T09:45:40.203Z,23.30
2023-12-22T09:48:07.612Z,18.80
2023-12-22T09:50:34.808Z,19.60
2023-12-22T09:53:01.598Z,15.30
2023-12-22T09:55:29.851Z,18.50
2023-12-22T09:57:56.777Z,18.90
2023-12-22T10:00:23.642Z,19.20
2023-12-22T10:02:50.553Z,18.40
2023-12-22T10:05:19.018Z,18.20
2023-12-22T10:07:47.517Z,19.60
2023-12-22T10:10:14.783Z,17.40
2023-12-22T10:12:42.019Z,16.30
2023-12-22T10:15:10.212Z,21.30
2023-12-22T10:17:37.189Z,21.00
2023-12-22T10:20:05.168Z,16.50
2023-12-22T10:22:32.392Z,18.80
2023-12-22T10:24:59.323Z,16.40
2023-12-22T10:27:26.246Z,18.10
2023-12-22T10:29:56.687Z,24.20
2023-12-22T10:32:23.929Z,20.20
2023-12-22T10:34:53.775Z,14.80
2023-12-22T10:37:22.141Z,18.40
2023-12-22T10:39:49.798Z,16.00
2023-12-22T10:42:16.846Z,13.00
2023-12-22T10:44:43.875Z,16.10
2023-12-22T10:47:10.888Z,16.30
2023-12-22T10:49:37.815Z,16.70
2023-12-22T10:52:05.635Z,18.10
2023-12-22T10:54:32.579Z,14.40
2023-12-22T10:57:03.203Z,16.30
2023-12-22T10:59:32.337Z,16.80
2023-12-22T11:01:59.966Z,14.20
2023-12-22T11:04:31.236Z,22.60
2023-12-22T11:06:58.737Z,15.60
2023-12-22T11:09:26.120Z,15.10
2023-12-22T11:11:52.960Z,16.70
2023-12-22T11:14:19.836Z,15.80
2023-12-22T11:16:49.140Z,16.70
2023-12-22T11:19:16.314Z,15.50
2023-12-22T11:21:43.708Z,20.20
2023-12-22T11:24:11.676Z,19.60
2023-12-22T11:26:38.523Z,18.30
2023-12-22T11:29:06.343Z,15.10
2023-12-22T11:31:33.479Z,16.90
2023-12-22T11:34:09.248Z,16.70
2023-12-22T11:36:39.003Z,17.20
2023-12-22T11:39:06.245Z,19.40
2023-12-22T11:41:34.216Z,18.00
2023-12-22T11:44:01.196Z,15.80
2023-12-22T11:46:28.957Z,14.50
2023-12-22T11:48:56.286Z,19.30
2023-12-22T11:51:23.244Z,19.20
2023-12-22T11:53:50.181Z,21.50
2023-12-22T11:56:19.007Z,20.50
2023-12-22T11:58:52.162Z,21.40
2023-12-22T12:01:20.222Z,17.30
2023-12-22T12:03:52.637Z,26.20
2023-12-22T12:06:31.600Z,24.20
2023-12-22T12:09:04.907Z,21.10
2023-12-22T12:11:55.506Z,21.70
2023-12-22T12:14:23.809Z,23.60
2023-12-22T12:16:50.756Z,21.60
2023-12-22T12:19:18.016Z,19.80
2023-12-22T12:21:44.963Z,23.00
2023-12-22T12:24:11.767Z,22.00
2023-12-22T12:26:38.616Z,22.80
2023-12-22T12:29:05.512Z,22.70
2023-12-22T12:31:38.785Z,24.90
2023-12-22T12:34:06.226Z,23.20
2023-12-22T12:36:33.428Z,23.60
2023-12-22T12:39:08.512Z,22.20
2023-12-22T12:41:41.267Z,21.50
2023-12-22T12:44:11.251Z,21.90
2023-12-22T12:46:39.712Z,24.50
2023-12-22T12:49:07.756Z,22.60
2023-12-22T12:51:45.350Z,19.80
2023-12-22T12:54:12.385Z,19.80
2023-12-22T12:56:40.574Z,20.00
2023-12-22T12:59:14.767Z,20.40
2023-12-22T13:01:48.545Z,23.30
2023-12-22T13:04:15.897Z,21.40
2023-12-22T13:06:46.973Z,18.40
2023-12-22T13:09:15.122Z,19.90
2023-12-22T13:11:46.595Z,17.50
2023-12-22T13:14:23.576Z,17.30
2023-12-22T13:16:51.065Z,19.80
2023-12-22T13:19:18.196Z,19.20
2023-12-22T13:21:45.111Z,21.60
2023-12-22T13:24:13.223Z,17.20
2023-12-22T13:26:40.957Z,17.60
2023-12-22T13:29:08.112Z,19.10
2023-12-22T13:31:37.633Z,19.30
2023-12-22T13:34:08.452Z,18.90
2023-12-22T13:36:37.344Z,18.80
2023-12-22T13:39:05.522Z,17.70
2023-12-22T13:41:34.822Z,15.10
2023-12-22T13:44:05.859Z,16.10
2023-12-22T13:46:33.842Z,20.50
2023-12-22T13:49:00.688Z,16.20
2023-12-22T13:51:27.606Z,18.60
2023-12-22T13:53:54.548Z,19.40
2023-12-22T13:56:21.495Z,20.10
2023-12-22T13:58:48.464Z,20.50
2023-12-22T14:01:16.466Z,14.30
2023-12-22T14:03:47.385Z,17.10
2023-12-22T14:06:14.951Z,15.30
2023-12-22T14:08:42.466Z,15.00
2023-12-22T14:11:09.533Z,15.40
2023-12-22T14:13:39.781Z,18.90
2023-12-22T14:16:07.392Z,16.60
2023-12-22T14:18:34.313Z,17.20
2023-12-22T14:21:02.510Z,20.60
2023-12-22T14:23:29.665Z,13.60
2023-12-22T14:25:56.556Z,18.00
2023-12-22T14:28:24.293Z,20.40
2023-12-22T14:30:51.618Z,19.70
2023-12-22T14:33:19.147Z,19.70
2023-12-22T14:38:27.200Z,18.10
2023-12-22T14:40:54.075Z,15.10
2023-12-22T14:43:21.192Z,17.20
2023-12-22T14:45:48.440Z,21.70
2023-12-22T14:48:15.396Z,16.30
2023-12-22T14:50:42.539Z,15.60
2023-12-22T14:53:11.710Z,20.60
2023-12-22T14:55:40.648Z,21.80
2023-12-22T14:58:10.540Z,18.40
2023-12-22T15:00:37.426Z,21.30
2023-12-22T15:03:04.956Z,16.90
2023-12-22T15:05:35.353Z,19.30
2023-12-22T15:08:07.752Z,19.80
2023-12-22T15:10:34.736Z,20.70
2023-12-22T15:13:02.551Z,17.90
2023-12-22T15:15:29.597Z,19.90
2023-12-22T15:17:56.515Z,19.20
2023-12-22T15:20:23.406Z,20.90
2023-12-22T15:22:50.488Z,17.80
2023-12-22T15:25:17.613Z,21.90
2023-12-22T15:27:44.425Z,19.50
2023-12-22T15:30:11.266Z,20.80
2023-12-22T15:32:38.164Z,16.90
2023-12-22T15:35:05.782Z,18.50
2023-12-22T15:37:35.903Z,20.50
2023-12-22T15:40:04.478Z,20.10
2023-12-22T15:42:31.635Z,17.80
2023-12-22T15:44:58.464Z,16.80
2023-12-22T15:47:25.312Z,19.00
2023-12-22T15:49:52.311Z,20.70
2023-12-22T15:52:19.612Z,21.60
2023-12-22T15:54:46.472Z,19.00
2023-12-22T15:57:13.293Z,20.60
2023-12-22T15:59:41.973Z,22.80
2023-12-22T16:02:08.924Z,16.90
2023-12-22T16:04:35.965Z,24.10
2023-12-22T16:07:02.917Z,18.50
2023-12-22T16:09:30.570Z,19.80
2023-12-22T16:11:58.639Z,19.00
2023-12-22T16:14:25.790Z,21.10
2023-12-22T16:16:56.686Z,24.70
2023-12-22T16:19:23.571Z,16.50
2023-12-22T16:21:53.184Z,21.00
2023-12-22T16:24:20.839Z,19.00
2023-12-22T16:26:48.296Z,20.40
2023-12-22T16:29:15.354Z,20.90
2023-12-22T16:31:42.114Z,20.80
2023-12-22T16:34:09.059Z,19.10
2023-12-22T16:36:35.974Z,19.80
2023-12-22T16:39:03.029Z,20.10
2023-12-22T16:41:29.969Z,18.00
2023-12-22T16:43:56.842Z,18.40
2023-12-22T16:46:23.851Z,20.30
2023-12-22T16:48:50.812Z,23.00
2023-12-22T16:51:17.890Z,20.80
2023-12-22T16:53:45.441Z,21.30
2023-12-22T16:56:12.465Z,17.30
2023-12-22T16:58:39.523Z,15.80
2023-12-22T17:01:21.755Z,21.80
2023-12-22T17:03:53.500Z,17.20
2023-12-22T17:06:21.184Z,13.40
2023-12-22T17:08:48.785Z,12.00
2023-12-22T17:11:15.938Z,16.00
2023-12-22T17:13:42.887Z,15.80
2023-12-22T17:16:10.848Z,13.30
2023-12-22T17:18:37.974Z,12.40
2023-12-22T17:21:06.550Z,12.10
2023-12-22T17:23:33.460Z,13.80
2023-12-22T17:26:00.494Z,14.70
2023-12-22T17:28:28.193Z,10.40
2023-12-22T17:30:55.275Z,14.60
2023-12-22T17:33:23.186Z,12.90
2023-12-22T17:35:50.598Z,13.50
2023-12-22T17:38:17.634Z,13.20
2023-12-22T17:40:45.445Z,11.70
2023-12-22T17:43:12.457Z,14.90
2023-12-22T17:45:39.404Z,14.50
2023-12-22T17:48:07.386Z,13.40
2023-12-22T17:50:34.314Z,15.00
2023-12-22T17:53:01.662Z,13.20
2023-12-22T17:55:28.867Z,16.60
2023-12-22T17:57:55.775Z,13.20
2023-12-22T18:00:22.806Z,15.00
2023-12-22T18:02:50.481Z,17.00
2023-12-22T18:05:17.630Z,19.70
2023-12-22T18:07:44.470Z,20.30
2023-12-22T18:10:11.303Z,14.30
2023-12-22T18:12:38.460Z,17.00
2023-12-22T18:15:07.273Z,18.60
2023-12-22T18:17:34.435Z,17.40
2023-12-22T18:20:01.460Z,20.80
2023-12-22T18:22:28.703Z,15.00
2023-12-22T18:24:55.738Z,16.50
2023-12-22T18:27:22.580Z,18.30
2023-12-22T18:29:49.428Z,15.40
2023-12-22T18:32:16.228Z,19.00
2023-12-22T18:34:43.157Z,23.80
2023-12-22T18:37:10.151Z,20.70
2023-12-22T18:39:37.406Z,28.00
2023-12-22T18:42:05.526Z,22.00
2023-12-22T18:44:32.421Z,21.10
2023-12-22T18:46:59.333Z,22.00
2023-12-22T18:49:26.242Z,26.80
2023-12-22T18:51:53.164Z,24.30
2023-12-22T18:54:21.125Z,25.30
2023-12-22T18:56:48.986Z,29.60
2023-12-22T18:59:16.087Z,27.30
2023-12-22T19:01:53.413Z,29.40
2023-12-22T19:04:31.279Z,29.20
2023-12-22T19:06:58.523Z,26.30
2023-12-22T19:09:25.831Z,23.40
2023-12-22T19:11:52.670Z,26.00
2023-12-22T19:14:19.726Z,26.60
2023-12-22T19:16:46.800Z,23.20
2023-12-22T19:19:13.903Z,22.50
2023-12-22T19:21:41.270Z,27.20
2023-12-22T19:24:08.225Z,25.50
2023-12-22T19:26:36.796Z,27.90
2023-12-22T19:29:03.681Z,24.50
2023-12-22T19:31:30.778Z,25.60
2023-12-22T19:33:58.112Z,24.00
2023-12-22T19:36:25.193Z,23.70
2023-12-22T19:38:53.058Z,26.00
2023-12-22T19:41:20.068Z,30.10
2023-12-22T19:43:47.284Z,21.10
2023-12-22T19:46:14.517Z,21.20
2023-12-22T19:48:41.497Z,16.30
2023-12-22T19:51:10.806Z,16.90
2023-12-22T19:53:39.535Z,9.90
2023-12-22T19:56:07.323Z,9.70
2023-12-22T19:58:34.905Z,10.40
2023-12-22T20:01:01.968Z,9.80
2023-12-22T20:03:30.268Z,9.90
2023-12-22T20:05:59.715Z,9.10
2023-12-22T20:08:29.293Z,10.10
2023-12-22T20:10:56.271Z,9.70
2023-12-22T20:13:23.084Z,10.70
2023-12-22T20:15:50.131Z,10.70
2023-12-22T20:18:17.425Z,9.30
2023-12-22T20:20:48.336Z,9.70
2023-12-22T20:23:15.173Z,10.10
2023-12-22T20:25:44.195Z,10.80
2023-12-22T20:28:11.200Z,8.70
2023-12-22T20:30:38.656Z,9.80
2023-12-22T20:33:05.987Z,8.00
2023-12-22T20:35:33.078Z,8.30
2023-12-22T20:38:00.204Z,10.30
2023-12-22T20:40:27.360Z,7.90
2023-12-22T20:42:54.403Z,9.50
2023-12-22T20:45:21.350Z,9.60
2023-12-22T20:47:48.436Z,8.10
2023-12-22T20:50:15.563Z,8.50
2023-12-22T20:52:42.384Z,8.30
2023-12-22T20:55:09.433Z,9.40
2023-12-22T20:57:36.378Z,9.20
2023-12-22T21:00:04.285Z,6.60
2023-12-22T21:02:33.207Z,7.70
2023-12-22T21:05:00.515Z,5.60
2023-12-22T21:07:27.845Z,5.50
2023-12-22T21:09:55.103Z,6.80
2023-12-22T21:12:21.955Z,6.00
2023-12-22T21:14:50.761Z,6.10
2023-12-22T21:17:20.167Z,9.40
2023-12-22T21:19:47.014Z,9.40
2023-12-22T21:22:13.810Z,6.00
2023-12-22T21:24:40.757Z,6.90
2023-12-22T21:27:07.716Z,7.40
2023-12-22T21:29:37.207Z,6.50
2023-12-22T21:32:04.396Z,8.30
2023-12-22T21:34:31.949Z,6.20
2023-12-22T21:36:58.756Z,7.10
2023-12-22T21:39:25.507Z,8.00
2023-12-22T21:41:53.060Z,7.30
2023-12-22T21:44:20.908Z,6.10
2023-12-22T21:46:47.918Z,8.20
2023-12-22T21:49:15.381Z,7.70
2023-12-22T21:51:42.370Z,7.40
2023-12-22T21:54:11.157Z,8.10
2023-12-22T21:56:38.411Z,10.40
2023-12-22T21:59:05.592Z,7.80
2023-12-22T22:01:32.442Z,7.00
2023-12-22T22:03:59.508Z,11.50
2023-12-22T22:06:27.319Z,6.90
2023-12-22T22:08:54.367Z,8.70
2023-12-22T22:11:21.456Z,7.30
2023-12-22T22:13:48.616Z,9.90
2023-12-22T22:16:15.602Z,8.30
2023-12-22T22:18:42.540Z,8.70
2023-12-22T22:21:09.499Z,8.90
2023-12-22T22:23:36.754Z,10.20
2023-12-22T22:26:05.066Z,8.40
2023-12-22T22:28:32.114Z,9.20
2023-12-22T22:30:58.908Z,8.80
2023-12-22T22:33:25.843Z,7.90
2023-12-22T22:35:53.209Z,8.60
2023-12-22T22:38:20.191Z,7.00
2023-12-22T22:40:47.339Z,7.60
2023-12-22T22:43:14.249Z,6.80
2023-12-22T22:45:41.918Z,9.40
2023-12-22T22:48:08.952Z,6.40
2023-12-22T22:50:37.138Z,13.40
2023-12-22T22:53:08.657Z,14.40
2023-12-22T22:55:36.614Z,7.90
2023-12-22T22:58:05.538Z,11.10
2023-12-22T23:00:32.995Z,9.10
2023-12-22T23:02:59.770Z,12.80
2023-12-22T23:05:26.790Z,6.90
2023-12-22T23:07:53.918Z,7.50
2023-12-22T23:10:20.884Z,16.50
2023-12-22T23:12:47.925Z,8.60
2023-12-22T23:15:14.670Z,10.90
2023-12-22T23:17:41.565Z,8.70
2023-12-22T23:20:08.965Z,11.60
2023-12-22T23:22:35.994Z,8.40
2023-12-22T23:25:04.512Z,8.90
2023-12-22T23:27:31.946Z,10.00
2023-12-22T23:29:58.894Z,9.00
2023-12-22T23:32:25.766Z,6.70
2023-12-22T23:34:53.845Z,10.60
2023-12-22T23:37:20.874Z,9.50
2023-12-22T23:39:47.697Z,9.00
2023-12-22T23:42:14.432Z,10.70
2023-12-22T23:44:42.504Z,11.00
2023-12-22T23:47:09.892Z,13.80
2023-12-22T23:49:36.860Z,14.40
2023-12-22T23:52:04.181Z,12.70
2023-12-22T23:54:31.002Z,18.50
2023-12-22T23:56:57.848Z,14.60
2023-12-22T23:59:24.630Z,8.40
